Armuchee, Georgia
Current Conditions -  °F | °C
As of 10:53 PM on Wednesday 26 Nov 2014 (Local Time) from KRMG Reporting Station
Overcast Overcast  
Wind Chill: 50°   Ceiling: 7000
Heat Index: 50°   Visibility: 10mi
Dew Point: 33°   Wind: 7mph
Humidity: 52%   Direction: 200°SSW
Pressure: 30.03"   Gusts: NA
Location:  34.39°N, 85.18°W
Report Text: KRMG 270353Z AUTO 20006KT 10SM SCT060 BKN070 OVC085 10/01 A3003 RMK AO2 RAB12E21 SLP165 P0000 T01000006
Loading
Personal Weather Stations






























Interactive Weather Map New forecast layout! Learn more

10-Day Weather Forecast

Advertisements
Track Severe Weather on mobile